<?xml version="1.0" encoding="UTF-8" standalone="no" ?>
<gpx xmlns="http://www.topografix.com/GPX/1/1" xmlns:xsi="http://www.w3.org/2001/XMLSchema-instance" xsi:schemaLocation="http://www.topografix.com/GPX/1/1 http://www.topografix.com/GPX/1/1/gpx.xsd" version="1.1" creator="VisuGPX - https://www.visugpx.com">
  <metadata>
    <name>Ventabren 2020</name>
    <desc><![CDATA[randonnée du 07 Septembre 2020 proposée par RandoJP]]></desc>
  </metadata>
  <trk>
    <name><![CDATA[Ventabren 2020]]></name>
    <trkseg>
      <trkpt lat="43.51637" lon="5.3143">
        <ele>77.5234375</ele>
        <time>2020-09-07T07:42:12Z</time>
      </trkpt>
      <trkpt lat="43.5164" lon="5.314">
        <ele>77.042846679688</ele>
        <time>2020-09-07T07:44:21Z</time>
      </trkpt>
      <trkpt lat="43.51653" lon="5.31377">
        <ele>74.158813476562</ele>
        <time>2020-09-07T07:44:44Z</time>
      </trkpt>
      <trkpt lat="43.51669" lon="5.3136">
        <ele>70.794189453125</ele>
        <time>2020-09-07T07:45:33Z</time>
      </trkpt>
      <trkpt lat="43.51675" lon="5.31365">
        <ele>71.27490234375</ele>
        <time>2020-09-07T07:46:28Z</time>
      </trkpt>
      <trkpt lat="43.51658" lon="5.31382">
        <ele>72.716918945312</ele>
        <time>2020-09-07T07:47:35Z</time>
      </trkpt>
      <trkpt lat="43.51643" lon="5.31406">
        <ele>77.5234375</ele>
        <time>2020-09-07T07:48:01Z</time>
      </trkpt>
      <trkpt lat="43.5164" lon="5.31365">
        <ele>79.446044921875</ele>
        <time>2020-09-07T07:48:35Z</time>
      </trkpt>
      <trkpt lat="43.51647" lon="5.31326">
        <ele>78.965454101562</ele>
        <time>2020-09-07T07:48:53Z</time>
      </trkpt>
      <trkpt lat="43.51665" lon="5.31327">
        <ele>78.965454101562</ele>
        <time>2020-09-07T07:50:07Z</time>
      </trkpt>
      <trkpt lat="43.51698" lon="5.31335">
        <ele>78.484741210938</ele>
        <time>2020-09-07T07:50:36Z</time>
      </trkpt>
      <trkpt lat="43.51734" lon="5.31364">
        <ele>78.484741210938</ele>
        <time>2020-09-07T07:51:09Z</time>
      </trkpt>
      <trkpt lat="43.51756" lon="5.31387">
        <ele>78.965454101562</ele>
        <time>2020-09-07T07:51:29Z</time>
      </trkpt>
      <trkpt lat="43.51786" lon="5.31422">
        <ele>79.926635742188</ele>
        <time>2020-09-07T07:52:00Z</time>
      </trkpt>
      <trkpt lat="43.51794" lon="5.31446">
        <ele>80.407470703125</ele>
        <time>2020-09-07T07:52:15Z</time>
      </trkpt>
      <trkpt lat="43.51795" lon="5.31476">
        <ele>80.88818359375</ele>
        <time>2020-09-07T07:52:32Z</time>
      </trkpt>
      <trkpt lat="43.51792" lon="5.31506">
        <ele>80.88818359375</ele>
        <time>2020-09-07T07:52:50Z</time>
      </trkpt>
      <trkpt lat="43.51788" lon="5.31574">
        <ele>80.407470703125</ele>
        <time>2020-09-07T07:53:28Z</time>
      </trkpt>
      <trkpt lat="43.51787" lon="5.31616">
        <ele>80.88818359375</ele>
        <time>2020-09-07T07:53:55Z</time>
      </trkpt>
      <trkpt lat="43.51781" lon="5.31649">
        <ele>80.88818359375</ele>
        <time>2020-09-07T07:54:14Z</time>
      </trkpt>
      <trkpt lat="43.51776" lon="5.31678">
        <ele>82.330078125</ele>
        <time>2020-09-07T07:54:33Z</time>
      </trkpt>
      <trkpt lat="43.51767" lon="5.31725">
        <ele>82.330078125</ele>
        <time>2020-09-07T07:55:12Z</time>
      </trkpt>
      <trkpt lat="43.51761" lon="5.31789">
        <ele>82.810791015625</ele>
        <time>2020-09-07T07:55:56Z</time>
      </trkpt>
      <trkpt lat="43.51754" lon="5.31839">
        <ele>83.77197265625</ele>
        <time>2020-09-07T07:56:28Z</time>
      </trkpt>
      <trkpt lat="43.5175" lon="5.31876">
        <ele>84.252685546875</ele>
        <time>2020-09-07T07:56:51Z</time>
      </trkpt>
      <trkpt lat="43.51744" lon="5.31929">
        <ele>84.7333984375</ele>
        <time>2020-09-07T07:57:22Z</time>
      </trkpt>
      <trkpt lat="43.5175" lon="5.31987">
        <ele>86.656005859375</ele>
        <time>2020-09-07T07:57:58Z</time>
      </trkpt>
      <trkpt lat="43.51761" lon="5.32019">
        <ele>87.136596679688</ele>
        <time>2020-09-07T07:58:21Z</time>
      </trkpt>
      <trkpt lat="43.51771" lon="5.32047">
        <ele>87.136596679688</ele>
        <time>2020-09-07T07:58:40Z</time>
      </trkpt>
      <trkpt lat="43.51788" lon="5.32085">
        <ele>87.6171875</ele>
        <time>2020-09-07T07:59:08Z</time>
      </trkpt>
      <trkpt lat="43.51795" lon="5.32132">
        <ele>88.578735351562</ele>
        <time>2020-09-07T07:59:42Z</time>
      </trkpt>
      <trkpt lat="43.51791" lon="5.32167">
        <ele>89.059326171875</ele>
        <time>2020-09-07T08:01:31Z</time>
      </trkpt>
      <trkpt lat="43.51786" lon="5.32207">
        <ele>89.539916992188</ele>
        <time>2020-09-07T08:01:56Z</time>
      </trkpt>
      <trkpt lat="43.5178" lon="5.32233">
        <ele>89.539916992188</ele>
        <time>2020-09-07T08:02:13Z</time>
      </trkpt>
      <trkpt lat="43.51771" lon="5.32272">
        <ele>90.020629882812</ele>
        <time>2020-09-07T08:02:40Z</time>
      </trkpt>
      <trkpt lat="43.51766" lon="5.32299">
        <ele>90.501342773438</ele>
        <time>2020-09-07T08:02:57Z</time>
      </trkpt>
      <trkpt lat="43.5176" lon="5.32336">
        <ele>91.462524414062</ele>
        <time>2020-09-07T08:03:22Z</time>
      </trkpt>
      <trkpt lat="43.51752" lon="5.32384">
        <ele>90.98193359375</ele>
        <time>2020-09-07T08:03:54Z</time>
      </trkpt>
      <trkpt lat="43.51746" lon="5.32417">
        <ele>91.462524414062</ele>
        <time>2020-09-07T08:04:17Z</time>
      </trkpt>
      <trkpt lat="43.51744" lon="5.32447">
        <ele>91.943237304688</ele>
        <time>2020-09-07T08:04:37Z</time>
      </trkpt>
      <trkpt lat="43.51751" lon="5.32471">
        <ele>94.8271484375</ele>
        <time>2020-09-07T08:05:00Z</time>
      </trkpt>
      <trkpt lat="43.51771" lon="5.32504">
        <ele>96.749877929688</ele>
        <time>2020-09-07T08:05:36Z</time>
      </trkpt>
      <trkpt lat="43.51807" lon="5.32518">
        <ele>97.711181640625</ele>
        <time>2020-09-07T08:06:12Z</time>
      </trkpt>
      <trkpt lat="43.51844" lon="5.32529">
        <ele>99.6337890625</ele>
        <time>2020-09-07T08:06:48Z</time>
      </trkpt>
      <trkpt lat="43.5188" lon="5.32527">
        <ele>101.07568359375</ele>
        <time>2020-09-07T08:07:25Z</time>
      </trkpt>
      <trkpt lat="43.519" lon="5.32516">
        <ele>102.51770019531</ele>
        <time>2020-09-07T08:08:02Z</time>
      </trkpt>
      <trkpt lat="43.51917" lon="5.32493">
        <ele>103.47900390625</ele>
        <time>2020-09-07T08:08:31Z</time>
      </trkpt>
      <trkpt lat="43.51919" lon="5.32457">
        <ele>106.36303710938</ele>
        <time>2020-09-07T08:08:59Z</time>
      </trkpt>
      <trkpt lat="43.51922" lon="5.32422">
        <ele>109.72766113281</ele>
        <time>2020-09-07T08:09:25Z</time>
      </trkpt>
      <trkpt lat="43.5193" lon="5.32383">
        <ele>113.57299804688</ele>
        <time>2020-09-07T08:09:56Z</time>
      </trkpt>
      <trkpt lat="43.5194" lon="5.32353">
        <ele>116.9375</ele>
        <time>2020-09-07T08:10:25Z</time>
      </trkpt>
      <trkpt lat="43.5196" lon="5.32327">
        <ele>120.30212402344</ele>
        <time>2020-09-07T08:10:56Z</time>
      </trkpt>
      <trkpt lat="43.51987" lon="5.32307">
        <ele>124.62805175781</ele>
        <time>2020-09-07T08:11:32Z</time>
      </trkpt>
      <trkpt lat="43.52007" lon="5.32277">
        <ele>126.55065917969</ele>
        <time>2020-09-07T08:12:04Z</time>
      </trkpt>
      <trkpt lat="43.52025" lon="5.32254">
        <ele>129.43469238281</ele>
        <time>2020-09-07T08:12:30Z</time>
      </trkpt>
      <trkpt lat="43.52042" lon="5.32233">
        <ele>131.35729980469</ele>
        <time>2020-09-07T08:12:54Z</time>
      </trkpt>
      <trkpt lat="43.52056" lon="5.32209">
        <ele>132.79931640625</ele>
        <time>2020-09-07T08:13:16Z</time>
      </trkpt>
      <trkpt lat="43.52079" lon="5.3217">
        <ele>134.72192382812</ele>
        <time>2020-09-07T08:13:52Z</time>
      </trkpt>
      <trkpt lat="43.52097" lon="5.32143">
        <ele>136.16394042969</ele>
        <time>2020-09-07T08:14:18Z</time>
      </trkpt>
      <trkpt lat="43.52121" lon="5.3211">
        <ele>139.52844238281</ele>
        <time>2020-09-07T08:14:54Z</time>
      </trkpt>
      <trkpt lat="43.52141" lon="5.32082">
        <ele>142.41247558594</ele>
        <time>2020-09-07T08:15:23Z</time>
      </trkpt>
      <trkpt lat="43.52155" lon="5.32056">
        <ele>144.33520507812</ele>
        <time>2020-09-07T08:15:46Z</time>
      </trkpt>
      <trkpt lat="43.52163" lon="5.32026">
        <ele>146.2578125</ele>
        <time>2020-09-07T08:16:08Z</time>
      </trkpt>
      <trkpt lat="43.5217" lon="5.31999">
        <ele>147.21899414062</ele>
        <time>2020-09-07T08:16:28Z</time>
      </trkpt>
      <trkpt lat="43.52184" lon="5.31973">
        <ele>148.18041992188</ele>
        <time>2020-09-07T08:16:48Z</time>
      </trkpt>
      <trkpt lat="43.52195" lon="5.31946">
        <ele>148.18041992188</ele>
        <time>2020-09-07T08:17:08Z</time>
      </trkpt>
      <trkpt lat="43.52209" lon="5.31918">
        <ele>149.1416015625</ele>
        <time>2020-09-07T08:17:33Z</time>
      </trkpt>
      <trkpt lat="43.52229" lon="5.31884">
        <ele>150.58361816406</ele>
        <time>2020-09-07T08:18:03Z</time>
      </trkpt>
      <trkpt lat="43.52229" lon="5.31856">
        <ele>152.02575683594</ele>
        <time>2020-09-07T08:18:23Z</time>
      </trkpt>
      <trkpt lat="43.52235" lon="5.31841">
        <ele>154.42895507812</ele>
        <time>2020-09-07T08:26:33Z</time>
      </trkpt>
      <trkpt lat="43.52254" lon="5.31815">
        <ele>155.87097167969</ele>
        <time>2020-09-07T08:27:02Z</time>
      </trkpt>
      <trkpt lat="43.52263" lon="5.31779">
        <ele>155.39025878906</ele>
        <time>2020-09-07T08:27:24Z</time>
      </trkpt>
      <trkpt lat="43.52294" lon="5.31751">
        <ele>157.79357910156</ele>
        <time>2020-09-07T08:27:59Z</time>
      </trkpt>
      <trkpt lat="43.52314" lon="5.31742">
        <ele>158.75476074219</ele>
        <time>2020-09-07T08:28:16Z</time>
      </trkpt>
      <trkpt lat="43.52336" lon="5.31732">
        <ele>158.75476074219</ele>
        <time>2020-09-07T08:28:36Z</time>
      </trkpt>
      <trkpt lat="43.52334" lon="5.31694">
        <ele>162.60009765625</ele>
        <time>2020-09-07T08:29:08Z</time>
      </trkpt>
      <trkpt lat="43.52327" lon="5.31659">
        <ele>165.96472167969</ele>
        <time>2020-09-07T08:29:33Z</time>
      </trkpt>
      <trkpt lat="43.52321" lon="5.31628">
        <ele>172.21325683594</ele>
        <time>2020-09-07T08:30:04Z</time>
      </trkpt>
      <trkpt lat="43.52299" lon="5.31623">
        <ele>173.17468261719</ele>
        <time>2020-09-07T08:30:26Z</time>
      </trkpt>
      <trkpt lat="43.52279" lon="5.31609">
        <ele>172.21325683594</ele>
        <time>2020-09-07T08:30:46Z</time>
      </trkpt>
      <trkpt lat="43.52262" lon="5.31594">
        <ele>172.21325683594</ele>
        <time>2020-09-07T08:35:43Z</time>
      </trkpt>
      <trkpt lat="43.52245" lon="5.3158">
        <ele>171.73266601562</ele>
        <time>2020-09-07T08:36:04Z</time>
      </trkpt>
      <trkpt lat="43.52207" lon="5.31555">
        <ele>170.29064941406</ele>
        <time>2020-09-07T08:36:47Z</time>
      </trkpt>
      <trkpt lat="43.5218" lon="5.31534">
        <ele>168.36804199219</ele>
        <time>2020-09-07T08:37:12Z</time>
      </trkpt>
      <trkpt lat="43.52145" lon="5.31529">
        <ele>166.92602539062</ele>
        <time>2020-09-07T08:37:41Z</time>
      </trkpt>
      <trkpt lat="43.52122" lon="5.31533">
        <ele>165.96472167969</ele>
        <time>2020-09-07T08:38:01Z</time>
      </trkpt>
      <trkpt lat="43.52116" lon="5.31545">
        <ele>163.5615234375</ele>
        <time>2020-09-07T08:38:28Z</time>
      </trkpt>
      <trkpt lat="43.52097" lon="5.31544">
        <ele>162.11950683594</ele>
        <time>2020-09-07T08:38:57Z</time>
      </trkpt>
      <trkpt lat="43.52116" lon="5.31541">
        <ele>163.5615234375</ele>
        <time>2020-09-07T08:39:32Z</time>
      </trkpt>
      <trkpt lat="43.52103" lon="5.31523">
        <ele>166.4453125</ele>
        <time>2020-09-07T08:39:59Z</time>
      </trkpt>
      <trkpt lat="43.52079" lon="5.31515">
        <ele>169.81005859375</ele>
        <time>2020-09-07T08:40:27Z</time>
      </trkpt>
      <trkpt lat="43.52048" lon="5.31504">
        <ele>175.09729003906</ele>
        <time>2020-09-07T08:41:03Z</time>
      </trkpt>
      <trkpt lat="43.52032" lon="5.31486">
        <ele>181.34582519531</ele>
        <time>2020-09-07T08:41:40Z</time>
      </trkpt>
      <trkpt lat="43.52018" lon="5.31469">
        <ele>181.82641601562</ele>
        <time>2020-09-07T08:43:14Z</time>
      </trkpt>
      <trkpt lat="43.51999" lon="5.31469">
        <ele>182.30712890625</ele>
        <time>2020-09-07T08:43:39Z</time>
      </trkpt>
      <trkpt lat="43.5197" lon="5.31447">
        <ele>183.26843261719</ele>
        <time>2020-09-07T08:44:13Z</time>
      </trkpt>
      <trkpt lat="43.51948" lon="5.31433">
        <ele>182.78784179688</ele>
        <time>2020-09-07T08:44:35Z</time>
      </trkpt>
      <trkpt lat="43.51927" lon="5.31442">
        <ele>182.78784179688</ele>
        <time>2020-09-07T08:44:55Z</time>
      </trkpt>
      <trkpt lat="43.51905" lon="5.31431">
        <ele>181.82641601562</ele>
        <time>2020-09-07T08:45:58Z</time>
      </trkpt>
      <trkpt lat="43.51886" lon="5.31401">
        <ele>179.42321777344</ele>
        <time>2020-09-07T08:46:27Z</time>
      </trkpt>
      <trkpt lat="43.51899" lon="5.31419">
        <ele>181.34582519531</ele>
        <time>2020-09-07T08:56:09Z</time>
      </trkpt>
      <trkpt lat="43.51934" lon="5.31439">
        <ele>183.7490234375</ele>
        <time>2020-09-07T08:56:43Z</time>
      </trkpt>
      <trkpt lat="43.51954" lon="5.31423">
        <ele>183.26843261719</ele>
        <time>2020-09-07T08:57:05Z</time>
      </trkpt>
      <trkpt lat="43.51974" lon="5.31401">
        <ele>184.22985839844</ele>
        <time>2020-09-07T08:57:28Z</time>
      </trkpt>
      <trkpt lat="43.52002" lon="5.31392">
        <ele>184.22985839844</ele>
        <time>2020-09-07T08:57:52Z</time>
      </trkpt>
      <trkpt lat="43.52028" lon="5.31366">
        <ele>183.7490234375</ele>
        <time>2020-09-07T08:58:17Z</time>
      </trkpt>
      <trkpt lat="43.52051" lon="5.3136">
        <ele>183.7490234375</ele>
        <time>2020-09-07T08:58:50Z</time>
      </trkpt>
      <trkpt lat="43.5207" lon="5.31361">
        <ele>183.26843261719</ele>
        <time>2020-09-07T09:00:36Z</time>
      </trkpt>
      <trkpt lat="43.52098" lon="5.3136">
        <ele>184.22985839844</ele>
        <time>2020-09-07T09:00:59Z</time>
      </trkpt>
      <trkpt lat="43.5212" lon="5.31369">
        <ele>185.19116210938</ele>
        <time>2020-09-07T09:01:19Z</time>
      </trkpt>
      <trkpt lat="43.52143" lon="5.31363">
        <ele>185.19116210938</ele>
        <time>2020-09-07T09:01:43Z</time>
      </trkpt>
      <trkpt lat="43.52162" lon="5.31353">
        <ele>185.67175292969</ele>
        <time>2020-09-07T09:02:02Z</time>
      </trkpt>
      <trkpt lat="43.52185" lon="5.31359">
        <ele>187.11376953125</ele>
        <time>2020-09-07T09:02:24Z</time>
      </trkpt>
      <trkpt lat="43.52222" lon="5.31348">
        <ele>187.59436035156</ele>
        <time>2020-09-07T09:02:59Z</time>
      </trkpt>
      <trkpt lat="43.52243" lon="5.31343">
        <ele>187.59436035156</ele>
        <time>2020-09-07T09:03:18Z</time>
      </trkpt>
      <trkpt lat="43.52263" lon="5.3134">
        <ele>187.11376953125</ele>
        <time>2020-09-07T09:03:37Z</time>
      </trkpt>
      <trkpt lat="43.52291" lon="5.31345">
        <ele>187.11376953125</ele>
        <time>2020-09-07T09:04:00Z</time>
      </trkpt>
      <trkpt lat="43.52312" lon="5.31346">
        <ele>184.71057128906</ele>
        <time>2020-09-07T09:04:20Z</time>
      </trkpt>
      <trkpt lat="43.52333" lon="5.31351">
        <ele>182.78784179688</ele>
        <time>2020-09-07T09:04:48Z</time>
      </trkpt>
      <trkpt lat="43.52358" lon="5.31355">
        <ele>184.22985839844</ele>
        <time>2020-09-07T09:05:17Z</time>
      </trkpt>
      <trkpt lat="43.52386" lon="5.31356">
        <ele>187.59436035156</ele>
        <time>2020-09-07T09:05:51Z</time>
      </trkpt>
      <trkpt lat="43.52414" lon="5.31357">
        <ele>190.958984375</ele>
        <time>2020-09-07T09:06:22Z</time>
      </trkpt>
      <trkpt lat="43.52438" lon="5.31379">
        <ele>193.84301757812</ele>
        <time>2020-09-07T09:06:55Z</time>
      </trkpt>
      <trkpt lat="43.52471" lon="5.31402">
        <ele>197.20751953125</ele>
        <time>2020-09-07T09:07:36Z</time>
      </trkpt>
      <trkpt lat="43.52492" lon="5.31401">
        <ele>197.68823242188</ele>
        <time>2020-09-07T09:07:56Z</time>
      </trkpt>
      <trkpt lat="43.52512" lon="5.31395">
        <ele>197.68823242188</ele>
        <time>2020-09-07T09:08:16Z</time>
      </trkpt>
      <trkpt lat="43.52534" lon="5.31389">
        <ele>198.1689453125</ele>
        <time>2020-09-07T09:08:36Z</time>
      </trkpt>
      <trkpt lat="43.52562" lon="5.31383">
        <ele>198.64953613281</ele>
        <time>2020-09-07T09:09:02Z</time>
      </trkpt>
      <trkpt lat="43.52585" lon="5.31375">
        <ele>199.61083984375</ele>
        <time>2020-09-07T09:09:24Z</time>
      </trkpt>
      <trkpt lat="43.5261" lon="5.31367">
        <ele>200.572265625</ele>
        <time>2020-09-07T09:09:50Z</time>
      </trkpt>
      <trkpt lat="43.52645" lon="5.31356">
        <ele>202.01428222656</ele>
        <time>2020-09-07T09:10:25Z</time>
      </trkpt>
      <trkpt lat="43.52664" lon="5.3135">
        <ele>202.49487304688</ele>
        <time>2020-09-07T09:10:43Z</time>
      </trkpt>
      <trkpt lat="43.52693" lon="5.31338">
        <ele>202.49487304688</ele>
        <time>2020-09-07T09:11:11Z</time>
      </trkpt>
      <trkpt lat="43.52712" lon="5.31334">
        <ele>202.97546386719</ele>
        <time>2020-09-07T09:11:28Z</time>
      </trkpt>
      <trkpt lat="43.52734" lon="5.31321">
        <ele>202.49487304688</ele>
        <time>2020-09-07T09:11:51Z</time>
      </trkpt>
      <trkpt lat="43.52753" lon="5.3132">
        <ele>201.53356933594</ele>
        <time>2020-09-07T09:12:10Z</time>
      </trkpt>
      <trkpt lat="43.52775" lon="5.31321">
        <ele>202.01428222656</ele>
        <time>2020-09-07T09:12:29Z</time>
      </trkpt>
      <trkpt lat="43.52812" lon="5.31316">
        <ele>201.05285644531</ele>
        <time>2020-09-07T09:13:05Z</time>
      </trkpt>
      <trkpt lat="43.52834" lon="5.31309">
        <ele>199.61083984375</ele>
        <time>2020-09-07T09:13:30Z</time>
      </trkpt>
      <trkpt lat="43.52853" lon="5.31306">
        <ele>198.1689453125</ele>
        <time>2020-09-07T09:13:47Z</time>
      </trkpt>
      <trkpt lat="43.52887" lon="5.31304">
        <ele>195.765625</ele>
        <time>2020-09-07T09:14:23Z</time>
      </trkpt>
      <trkpt lat="43.52908" lon="5.31306">
        <ele>195.28491210938</ele>
        <time>2020-09-07T09:14:44Z</time>
      </trkpt>
      <trkpt lat="43.52945" lon="5.31327">
        <ele>195.28491210938</ele>
        <time>2020-09-07T09:15:11Z</time>
      </trkpt>
      <trkpt lat="43.52959" lon="5.31347">
        <ele>196.24633789062</ele>
        <time>2020-09-07T09:15:31Z</time>
      </trkpt>
      <trkpt lat="43.52978" lon="5.31357">
        <ele>198.1689453125</ele>
        <time>2020-09-07T09:15:54Z</time>
      </trkpt>
      <trkpt lat="43.52994" lon="5.31381">
        <ele>199.13012695312</ele>
        <time>2020-09-07T09:16:17Z</time>
      </trkpt>
      <trkpt lat="43.52992" lon="5.31381">
        <ele>199.13012695312</ele>
        <time>2020-09-07T09:16:47Z</time>
      </trkpt>
      <trkpt lat="43.5297" lon="5.31349">
        <ele>198.1689453125</ele>
        <time>2020-09-07T09:17:17Z</time>
      </trkpt>
      <trkpt lat="43.52954" lon="5.3132">
        <ele>195.765625</ele>
        <time>2020-09-07T09:17:41Z</time>
      </trkpt>
      <trkpt lat="43.52953" lon="5.31292">
        <ele>195.28491210938</ele>
        <time>2020-09-07T09:18:08Z</time>
      </trkpt>
      <trkpt lat="43.52963" lon="5.31257">
        <ele>192.40112304688</ele>
        <time>2020-09-07T09:18:39Z</time>
      </trkpt>
      <trkpt lat="43.52987" lon="5.3124">
        <ele>189.99768066406</ele>
        <time>2020-09-07T09:19:02Z</time>
      </trkpt>
      <trkpt lat="43.53013" lon="5.31205">
        <ele>187.11376953125</ele>
        <time>2020-09-07T09:19:32Z</time>
      </trkpt>
      <trkpt lat="43.53037" lon="5.31185">
        <ele>185.67175292969</ele>
        <time>2020-09-07T09:20:01Z</time>
      </trkpt>
      <trkpt lat="43.53067" lon="5.31162">
        <ele>182.30712890625</ele>
        <time>2020-09-07T09:20:35Z</time>
      </trkpt>
      <trkpt lat="43.53061" lon="5.31133">
        <ele>182.78784179688</ele>
        <time>2020-09-07T09:20:54Z</time>
      </trkpt>
      <trkpt lat="43.53054" lon="5.31104">
        <ele>183.26843261719</ele>
        <time>2020-09-07T09:21:14Z</time>
      </trkpt>
      <trkpt lat="43.53045" lon="5.3107">
        <ele>184.71057128906</ele>
        <time>2020-09-07T09:21:37Z</time>
      </trkpt>
      <trkpt lat="43.53041" lon="5.3103">
        <ele>185.67175292969</ele>
        <time>2020-09-07T09:22:10Z</time>
      </trkpt>
      <trkpt lat="43.53042" lon="5.30994">
        <ele>186.15246582031</ele>
        <time>2020-09-07T09:22:42Z</time>
      </trkpt>
      <trkpt lat="43.53057" lon="5.30975">
        <ele>187.59436035156</ele>
        <time>2020-09-07T09:29:23Z</time>
      </trkpt>
      <trkpt lat="43.53066" lon="5.30947">
        <ele>189.51696777344</ele>
        <time>2020-09-07T09:30:07Z</time>
      </trkpt>
      <trkpt lat="43.53052" lon="5.30925">
        <ele>183.26843261719</ele>
        <time>2020-09-07T09:30:39Z</time>
      </trkpt>
      <trkpt lat="43.53054" lon="5.30897">
        <ele>180.865234375</ele>
        <time>2020-09-07T09:31:05Z</time>
      </trkpt>
      <trkpt lat="43.5305" lon="5.3086">
        <ele>179.42321777344</ele>
        <time>2020-09-07T09:31:40Z</time>
      </trkpt>
      <trkpt lat="43.53033" lon="5.3083">
        <ele>178.4619140625</ele>
        <time>2020-09-07T09:32:06Z</time>
      </trkpt>
      <trkpt lat="43.53018" lon="5.30811">
        <ele>177.98120117188</ele>
        <time>2020-09-07T09:32:24Z</time>
      </trkpt>
      <trkpt lat="43.53018" lon="5.30772">
        <ele>178.4619140625</ele>
        <time>2020-09-07T09:33:07Z</time>
      </trkpt>
      <trkpt lat="43.53032" lon="5.30745">
        <ele>180.38452148438</ele>
        <time>2020-09-07T09:33:29Z</time>
      </trkpt>
      <trkpt lat="43.53051" lon="5.30726">
        <ele>180.38452148438</ele>
        <time>2020-09-07T09:33:50Z</time>
      </trkpt>
      <trkpt lat="43.53071" lon="5.30721">
        <ele>181.82641601562</ele>
        <time>2020-09-07T09:34:09Z</time>
      </trkpt>
      <trkpt lat="43.53112" lon="5.30719">
        <ele>184.22985839844</ele>
        <time>2020-09-07T09:34:45Z</time>
      </trkpt>
      <trkpt lat="43.53136" lon="5.30718">
        <ele>185.19116210938</ele>
        <time>2020-09-07T09:35:05Z</time>
      </trkpt>
      <trkpt lat="43.53165" lon="5.30712">
        <ele>186.15246582031</ele>
        <time>2020-09-07T09:35:30Z</time>
      </trkpt>
      <trkpt lat="43.53189" lon="5.30711">
        <ele>186.15246582031</ele>
        <time>2020-09-07T09:35:52Z</time>
      </trkpt>
      <trkpt lat="43.53214" lon="5.30709">
        <ele>186.15246582031</ele>
        <time>2020-09-07T09:36:21Z</time>
      </trkpt>
      <trkpt lat="43.53243" lon="5.30702">
        <ele>185.67175292969</ele>
        <time>2020-09-07T09:36:51Z</time>
      </trkpt>
      <trkpt lat="43.53264" lon="5.30688">
        <ele>186.63317871094</ele>
        <time>2020-09-07T09:37:15Z</time>
      </trkpt>
      <trkpt lat="43.53285" lon="5.30679">
        <ele>190.47839355469</ele>
        <time>2020-09-07T09:37:45Z</time>
      </trkpt>
      <trkpt lat="43.53314" lon="5.3066">
        <ele>193.3623046875</ele>
        <time>2020-09-07T09:38:20Z</time>
      </trkpt>
      <trkpt lat="43.53339" lon="5.30637">
        <ele>197.68823242188</ele>
        <time>2020-09-07T09:38:55Z</time>
      </trkpt>
      <trkpt lat="43.5335" lon="5.30611">
        <ele>201.05285644531</ele>
        <time>2020-09-07T09:39:21Z</time>
      </trkpt>
      <trkpt lat="43.53367" lon="5.30572">
        <ele>205.37878417969</ele>
        <time>2020-09-07T09:39:57Z</time>
      </trkpt>
      <trkpt lat="43.53364" lon="5.30538">
        <ele>210.666015625</ele>
        <time>2020-09-07T09:40:36Z</time>
      </trkpt>
      <trkpt lat="43.53329" lon="5.30542">
        <ele>214.99194335938</ele>
        <time>2020-09-07T09:41:17Z</time>
      </trkpt>
      <trkpt lat="43.53306" lon="5.30541">
        <ele>216.43395996094</ele>
        <time>2020-09-07T09:41:40Z</time>
      </trkpt>
      <trkpt lat="43.53284" lon="5.3054">
        <ele>217.8759765625</ele>
        <time>2020-09-07T09:42:02Z</time>
      </trkpt>
      <trkpt lat="43.53267" lon="5.30524">
        <ele>220.27917480469</ele>
        <time>2020-09-07T09:42:24Z</time>
      </trkpt>
      <trkpt lat="43.53281" lon="5.30481">
        <ele>224.60522460938</ele>
        <time>2020-09-07T09:43:06Z</time>
      </trkpt>
      <trkpt lat="43.53301" lon="5.3047">
        <ele>225.56652832031</ele>
        <time>2020-09-07T09:43:25Z</time>
      </trkpt>
      <trkpt lat="43.53319" lon="5.30451">
        <ele>227.48913574219</ele>
        <time>2020-09-07T09:43:48Z</time>
      </trkpt>
      <trkpt lat="43.53326" lon="5.30419">
        <ele>229.41174316406</ele>
        <time>2020-09-07T09:44:11Z</time>
      </trkpt>
      <trkpt lat="43.53331" lon="5.3038">
        <ele>231.33435058594</ele>
        <time>2020-09-07T09:44:38Z</time>
      </trkpt>
      <trkpt lat="43.53334" lon="5.30349">
        <ele>232.77648925781</ele>
        <time>2020-09-07T09:45:00Z</time>
      </trkpt>
      <trkpt lat="43.53339" lon="5.3031">
        <ele>233.73767089844</ele>
        <time>2020-09-07T09:45:28Z</time>
      </trkpt>
      <trkpt lat="43.53341" lon="5.30277">
        <ele>234.69909667969</ele>
        <time>2020-09-07T09:45:52Z</time>
      </trkpt>
      <trkpt lat="43.53361" lon="5.3027">
        <ele>235.1796875</ele>
        <time>2020-09-07T09:46:30Z</time>
      </trkpt>
      <trkpt lat="43.53387" lon="5.30256">
        <ele>235.66027832031</ele>
        <time>2020-09-07T09:46:55Z</time>
      </trkpt>
      <trkpt lat="43.53411" lon="5.30237">
        <ele>236.14099121094</ele>
        <time>2020-09-07T09:47:19Z</time>
      </trkpt>
      <trkpt lat="43.53429" lon="5.30206">
        <ele>235.66027832031</ele>
        <time>2020-09-07T09:47:45Z</time>
      </trkpt>
      <trkpt lat="43.53434" lon="5.30174">
        <ele>236.62170410156</ele>
        <time>2020-09-07T09:48:07Z</time>
      </trkpt>
      <trkpt lat="43.5343" lon="5.30148">
        <ele>237.58288574219</ele>
        <time>2020-09-07T09:48:27Z</time>
      </trkpt>
      <trkpt lat="43.53434" lon="5.30113">
        <ele>239.50549316406</ele>
        <time>2020-09-07T09:52:33Z</time>
      </trkpt>
      <trkpt lat="43.53443" lon="5.30083">
        <ele>239.50549316406</ele>
        <time>2020-09-07T09:52:55Z</time>
      </trkpt>
      <trkpt lat="43.53448" lon="5.30044">
        <ele>239.98620605469</ele>
        <time>2020-09-07T09:53:20Z</time>
      </trkpt>
      <trkpt lat="43.53447" lon="5.30012">
        <ele>240.46704101562</ele>
        <time>2020-09-07T09:53:42Z</time>
      </trkpt>
      <trkpt lat="43.5345" lon="5.29987">
        <ele>240.46704101562</ele>
        <time>2020-09-07T09:53:58Z</time>
      </trkpt>
      <trkpt lat="43.53471" lon="5.29978">
        <ele>240.94763183594</ele>
        <time>2020-09-07T09:54:18Z</time>
      </trkpt>
      <trkpt lat="43.53483" lon="5.29957">
        <ele>241.90893554688</ele>
        <time>2020-09-07T09:54:37Z</time>
      </trkpt>
      <trkpt lat="43.53483" lon="5.29926">
        <ele>242.87023925781</ele>
        <time>2020-09-07T09:54:59Z</time>
      </trkpt>
      <trkpt lat="43.53486" lon="5.29885">
        <ele>243.83154296875</ele>
        <time>2020-09-07T09:55:24Z</time>
      </trkpt>
      <trkpt lat="43.53489" lon="5.29856">
        <ele>243.83154296875</ele>
        <time>2020-09-07T09:55:44Z</time>
      </trkpt>
      <trkpt lat="43.53497" lon="5.29824">
        <ele>244.79284667969</ele>
        <time>2020-09-07T09:56:06Z</time>
      </trkpt>
      <trkpt lat="43.53504" lon="5.29794">
        <ele>244.79284667969</ele>
        <time>2020-09-07T09:56:25Z</time>
      </trkpt>
      <trkpt lat="43.53516" lon="5.29744">
        <ele>245.75415039062</ele>
        <time>2020-09-07T09:56:59Z</time>
      </trkpt>
      <trkpt lat="43.53528" lon="5.29714">
        <ele>246.23486328125</ele>
        <time>2020-09-07T09:57:20Z</time>
      </trkpt>
      <trkpt lat="43.53536" lon="5.29688">
        <ele>246.23486328125</ele>
        <time>2020-09-07T09:57:40Z</time>
      </trkpt>
      <trkpt lat="43.53548" lon="5.29638">
        <ele>247.19604492188</ele>
        <time>2020-09-07T09:58:15Z</time>
      </trkpt>
      <trkpt lat="43.53557" lon="5.2961">
        <ele>248.15759277344</ele>
        <time>2020-09-07T09:58:35Z</time>
      </trkpt>
      <trkpt lat="43.53564" lon="5.29581">
        <ele>248.15759277344</ele>
        <time>2020-09-07T09:58:55Z</time>
      </trkpt>
      <trkpt lat="43.53575" lon="5.29562">
        <ele>248.63818359375</ele>
        <time>2020-09-07T10:01:42Z</time>
      </trkpt>
      <trkpt lat="43.5358" lon="5.29515">
        <ele>249.59948730469</ele>
        <time>2020-09-07T10:02:12Z</time>
      </trkpt>
      <trkpt lat="43.53576" lon="5.29488">
        <ele>249.11877441406</ele>
        <time>2020-09-07T10:02:30Z</time>
      </trkpt>
      <trkpt lat="43.53569" lon="5.29453">
        <ele>248.15759277344</ele>
        <time>2020-09-07T10:03:01Z</time>
      </trkpt>
      <trkpt lat="43.53561" lon="5.29433">
        <ele>247.6767578125</ele>
        <time>2020-09-07T10:03:42Z</time>
      </trkpt>
      <trkpt lat="43.53592" lon="5.29409">
        <ele>255.36730957031</ele>
        <time>2020-09-07T10:53:12Z</time>
      </trkpt>
      <trkpt lat="43.536" lon="5.29392">
        <ele>255.36730957031</ele>
        <time>2020-09-07T10:53:45Z</time>
      </trkpt>
      <trkpt lat="43.53621" lon="5.29401">
        <ele>255.84802246094</ele>
        <time>2020-09-07T10:54:05Z</time>
      </trkpt>
      <trkpt lat="43.53638" lon="5.29392">
        <ele>256.80932617188</ele>
        <time>2020-09-07T10:54:33Z</time>
      </trkpt>
      <trkpt lat="43.53653" lon="5.29363">
        <ele>257.2900390625</ele>
        <time>2020-09-07T10:54:59Z</time>
      </trkpt>
      <trkpt lat="43.53628" lon="5.29341">
        <ele>256.80932617188</ele>
        <time>2020-09-07T10:55:31Z</time>
      </trkpt>
      <trkpt lat="43.53613" lon="5.29326">
        <ele>256.80932617188</ele>
        <time>2020-09-07T10:55:48Z</time>
      </trkpt>
      <trkpt lat="43.53594" lon="5.29316">
        <ele>255.84802246094</ele>
        <time>2020-09-07T10:56:09Z</time>
      </trkpt>
      <trkpt lat="43.53577" lon="5.29297">
        <ele>256.32873535156</ele>
        <time>2020-09-07T10:56:32Z</time>
      </trkpt>
      <trkpt lat="43.53567" lon="5.29284">
        <ele>255.84802246094</ele>
        <time>2020-09-07T10:59:10Z</time>
      </trkpt>
      <trkpt lat="43.53577" lon="5.29294">
        <ele>254.88659667969</ele>
        <time>2020-09-07T11:05:02Z</time>
      </trkpt>
      <trkpt lat="43.53596" lon="5.29307">
        <ele>254.40600585938</ele>
        <time>2020-09-07T11:05:26Z</time>
      </trkpt>
      <trkpt lat="43.5362" lon="5.29309">
        <ele>254.40600585938</ele>
        <time>2020-09-07T11:05:53Z</time>
      </trkpt>
      <trkpt lat="43.53646" lon="5.29303">
        <ele>255.36730957031</ele>
        <time>2020-09-07T11:06:19Z</time>
      </trkpt>
      <trkpt lat="43.53674" lon="5.29294">
        <ele>255.84802246094</ele>
        <time>2020-09-07T11:06:44Z</time>
      </trkpt>
      <trkpt lat="43.537" lon="5.29289">
        <ele>256.32873535156</ele>
        <time>2020-09-07T11:07:11Z</time>
      </trkpt>
      <trkpt lat="43.53727" lon="5.29271">
        <ele>255.36730957031</ele>
        <time>2020-09-07T11:07:41Z</time>
      </trkpt>
      <trkpt lat="43.53747" lon="5.29261">
        <ele>254.40600585938</ele>
        <time>2020-09-07T11:08:19Z</time>
      </trkpt>
      <trkpt lat="43.53762" lon="5.29266">
        <ele>253.92541503906</ele>
        <time>2020-09-07T11:09:21Z</time>
      </trkpt>
      <trkpt lat="43.53788" lon="5.29278">
        <ele>247.19604492188</ele>
        <time>2020-09-07T11:10:05Z</time>
      </trkpt>
      <trkpt lat="43.53795" lon="5.29307">
        <ele>243.35083007812</ele>
        <time>2020-09-07T11:11:10Z</time>
      </trkpt>
      <trkpt lat="43.53811" lon="5.29286">
        <ele>237.58288574219</ele>
        <time>2020-09-07T11:12:49Z</time>
      </trkpt>
      <trkpt lat="43.53824" lon="5.2927">
        <ele>231.81494140625</ele>
        <time>2020-09-07T11:14:17Z</time>
      </trkpt>
      <trkpt lat="43.53843" lon="5.29274">
        <ele>225.0859375</ele>
        <time>2020-09-07T11:16:02Z</time>
      </trkpt>
      <trkpt lat="43.53861" lon="5.29275">
        <ele>220.75988769531</ele>
        <time>2020-09-07T11:17:03Z</time>
      </trkpt>
      <trkpt lat="43.53884" lon="5.2927">
        <ele>220.27917480469</ele>
        <time>2020-09-07T11:17:24Z</time>
      </trkpt>
      <trkpt lat="43.53895" lon="5.29244">
        <ele>220.75988769531</ele>
        <time>2020-09-07T11:19:52Z</time>
      </trkpt>
      <trkpt lat="43.53899" lon="5.29219">
        <ele>220.27917480469</ele>
        <time>2020-09-07T11:20:37Z</time>
      </trkpt>
      <trkpt lat="43.53878" lon="5.29215">
        <ele>214.03063964844</ele>
        <time>2020-09-07T11:21:15Z</time>
      </trkpt>
      <trkpt lat="43.53879" lon="5.29189">
        <ele>210.18542480469</ele>
        <time>2020-09-07T11:21:57Z</time>
      </trkpt>
      <trkpt lat="43.53861" lon="5.29185">
        <ele>206.82067871094</ele>
        <time>2020-09-07T11:22:31Z</time>
      </trkpt>
      <trkpt lat="43.53852" lon="5.29158">
        <ele>198.64953613281</ele>
        <time>2020-09-07T11:24:00Z</time>
      </trkpt>
      <trkpt lat="43.53848" lon="5.29128">
        <ele>191.92028808594</ele>
        <time>2020-09-07T11:24:34Z</time>
      </trkpt>
      <trkpt lat="43.53846" lon="5.29096">
        <ele>185.19116210938</ele>
        <time>2020-09-07T11:25:13Z</time>
      </trkpt>
      <trkpt lat="43.5385" lon="5.2907">
        <ele>178.94262695312</ele>
        <time>2020-09-07T11:25:48Z</time>
      </trkpt>
      <trkpt lat="43.53844" lon="5.29039">
        <ele>174.13586425781</ele>
        <time>2020-09-07T11:26:17Z</time>
      </trkpt>
      <trkpt lat="43.53832" lon="5.29011">
        <ele>170.77136230469</ele>
        <time>2020-09-07T11:26:50Z</time>
      </trkpt>
      <trkpt lat="43.53836" lon="5.28975">
        <ele>165.96472167969</ele>
        <time>2020-09-07T11:27:39Z</time>
      </trkpt>
      <trkpt lat="43.53843" lon="5.28952">
        <ele>162.60009765625</ele>
        <time>2020-09-07T11:28:40Z</time>
      </trkpt>
      <trkpt lat="43.53825" lon="5.28947">
        <ele>161.63891601562</ele>
        <time>2020-09-07T11:33:23Z</time>
      </trkpt>
      <trkpt lat="43.538" lon="5.28948">
        <ele>160.19689941406</ele>
        <time>2020-09-07T11:33:52Z</time>
      </trkpt>
      <trkpt lat="43.53772" lon="5.28959">
        <ele>157.31286621094</ele>
        <time>2020-09-07T11:34:24Z</time>
      </trkpt>
      <trkpt lat="43.53752" lon="5.28963">
        <ele>154.42895507812</ele>
        <time>2020-09-07T11:34:45Z</time>
      </trkpt>
      <trkpt lat="43.53724" lon="5.28948">
        <ele>151.544921875</ele>
        <time>2020-09-07T11:35:35Z</time>
      </trkpt>
      <trkpt lat="43.53684" lon="5.28945">
        <ele>149.62231445312</ele>
        <time>2020-09-07T11:36:16Z</time>
      </trkpt>
      <trkpt lat="43.53664" lon="5.28951">
        <ele>148.66101074219</ele>
        <time>2020-09-07T11:36:38Z</time>
      </trkpt>
      <trkpt lat="43.53629" lon="5.28965">
        <ele>148.66101074219</ele>
        <time>2020-09-07T11:37:17Z</time>
      </trkpt>
      <trkpt lat="43.53596" lon="5.28984">
        <ele>147.21899414062</ele>
        <time>2020-09-07T11:37:55Z</time>
      </trkpt>
      <trkpt lat="43.53574" lon="5.28984">
        <ele>145.29638671875</ele>
        <time>2020-09-07T11:38:19Z</time>
      </trkpt>
      <trkpt lat="43.5353" lon="5.28994">
        <ele>142.41247558594</ele>
        <time>2020-09-07T11:39:06Z</time>
      </trkpt>
      <trkpt lat="43.53504" lon="5.28992">
        <ele>140.48986816406</ele>
        <time>2020-09-07T11:39:32Z</time>
      </trkpt>
      <trkpt lat="43.53489" lon="5.28961">
        <ele>138.08654785156</ele>
        <time>2020-09-07T11:39:54Z</time>
      </trkpt>
      <trkpt lat="43.53462" lon="5.28972">
        <ele>134.72192382812</ele>
        <time>2020-09-07T11:40:29Z</time>
      </trkpt>
      <trkpt lat="43.53432" lon="5.28984">
        <ele>133.76049804688</ele>
        <time>2020-09-07T11:40:57Z</time>
      </trkpt>
      <trkpt lat="43.53414" lon="5.28992">
        <ele>133.76049804688</ele>
        <time>2020-09-07T11:41:15Z</time>
      </trkpt>
      <trkpt lat="43.53384" lon="5.29017">
        <ele>133.76049804688</ele>
        <time>2020-09-07T11:41:46Z</time>
      </trkpt>
      <trkpt lat="43.53358" lon="5.29024">
        <ele>133.27990722656</ele>
        <time>2020-09-07T11:42:10Z</time>
      </trkpt>
      <trkpt lat="43.53307" lon="5.29035">
        <ele>132.79931640625</ele>
        <time>2020-09-07T11:44:06Z</time>
      </trkpt>
      <trkpt lat="43.53283" lon="5.29035">
        <ele>130.87670898438</ele>
        <time>2020-09-07T11:44:30Z</time>
      </trkpt>
      <trkpt lat="43.53254" lon="5.29034">
        <ele>129.43469238281</ele>
        <time>2020-09-07T11:44:57Z</time>
      </trkpt>
      <trkpt lat="43.53225" lon="5.29023">
        <ele>127.99255371094</ele>
        <time>2020-09-07T11:45:36Z</time>
      </trkpt>
      <trkpt lat="43.53184" lon="5.29013">
        <ele>125.10876464844</ele>
        <time>2020-09-07T11:47:07Z</time>
      </trkpt>
      <trkpt lat="43.53162" lon="5.29016">
        <ele>124.14733886719</ele>
        <time>2020-09-07T11:47:27Z</time>
      </trkpt>
      <trkpt lat="43.53138" lon="5.29027">
        <ele>124.14733886719</ele>
        <time>2020-09-07T11:47:48Z</time>
      </trkpt>
      <trkpt lat="43.53113" lon="5.29029">
        <ele>122.70544433594</ele>
        <time>2020-09-07T11:48:10Z</time>
      </trkpt>
      <trkpt lat="43.53075" lon="5.2902">
        <ele>120.78283691406</ele>
        <time>2020-09-07T11:48:46Z</time>
      </trkpt>
      <trkpt lat="43.53043" lon="5.29029">
        <ele>119.82141113281</ele>
        <time>2020-09-07T11:49:15Z</time>
      </trkpt>
      <trkpt lat="43.53022" lon="5.29051">
        <ele>119.82141113281</ele>
        <time>2020-09-07T11:49:38Z</time>
      </trkpt>
      <trkpt lat="43.52988" lon="5.29062">
        <ele>118.37939453125</ele>
        <time>2020-09-07T11:50:11Z</time>
      </trkpt>
      <trkpt lat="43.52959" lon="5.29064">
        <ele>116.9375</ele>
        <time>2020-09-07T11:50:38Z</time>
      </trkpt>
      <trkpt lat="43.52931" lon="5.291">
        <ele>114.05358886719</ele>
        <time>2020-09-07T11:51:17Z</time>
      </trkpt>
      <trkpt lat="43.52908" lon="5.29125">
        <ele>112.61157226562</ele>
        <time>2020-09-07T11:51:42Z</time>
      </trkpt>
      <trkpt lat="43.52885" lon="5.2913">
        <ele>112.13098144531</ele>
        <time>2020-09-07T11:52:03Z</time>
      </trkpt>
      <trkpt lat="43.52873" lon="5.29107">
        <ele>110.20825195312</ele>
        <time>2020-09-07T11:52:21Z</time>
      </trkpt>
      <trkpt lat="43.52859" lon="5.29066">
        <ele>106.84362792969</ele>
        <time>2020-09-07T11:52:55Z</time>
      </trkpt>
      <trkpt lat="43.52849" lon="5.29039">
        <ele>105.40173339844</ele>
        <time>2020-09-07T11:53:34Z</time>
      </trkpt>
      <trkpt lat="43.52828" lon="5.2901">
        <ele>103.47900390625</ele>
        <time>2020-09-07T11:54:02Z</time>
      </trkpt>
      <trkpt lat="43.52804" lon="5.28988">
        <ele>101.07568359375</ele>
        <time>2020-09-07T11:54:30Z</time>
      </trkpt>
      <trkpt lat="43.5278" lon="5.28973">
        <ele>98.19189453125</ele>
        <time>2020-09-07T11:54:56Z</time>
      </trkpt>
      <trkpt lat="43.52749" lon="5.28948">
        <ele>91.943237304688</ele>
        <time>2020-09-07T11:55:32Z</time>
      </trkpt>
      <trkpt lat="43.52724" lon="5.28951">
        <ele>87.136596679688</ele>
        <time>2020-09-07T11:55:58Z</time>
      </trkpt>
      <trkpt lat="43.52703" lon="5.28951">
        <ele>83.77197265625</ele>
        <time>2020-09-07T11:56:19Z</time>
      </trkpt>
      <trkpt lat="43.52686" lon="5.28964">
        <ele>80.407470703125</ele>
        <time>2020-09-07T11:56:41Z</time>
      </trkpt>
      <trkpt lat="43.52682" lon="5.28994">
        <ele>80.88818359375</ele>
        <time>2020-09-07T11:57:02Z</time>
      </trkpt>
      <trkpt lat="43.52688" lon="5.29032">
        <ele>81.849365234375</ele>
        <time>2020-09-07T11:57:28Z</time>
      </trkpt>
      <trkpt lat="43.52679" lon="5.29057">
        <ele>83.291381835938</ele>
        <time>2020-09-07T11:57:46Z</time>
      </trkpt>
      <trkpt lat="43.52666" lon="5.29083">
        <ele>80.407470703125</ele>
        <time>2020-09-07T11:58:10Z</time>
      </trkpt>
      <trkpt lat="43.52656" lon="5.29108">
        <ele>79.446044921875</ele>
        <time>2020-09-07T11:58:25Z</time>
      </trkpt>
      <trkpt lat="43.52638" lon="5.29156">
        <ele>80.407470703125</ele>
        <time>2020-09-07T11:58:55Z</time>
      </trkpt>
      <trkpt lat="43.52626" lon="5.29175">
        <ele>80.407470703125</ele>
        <time>2020-09-07T11:59:10Z</time>
      </trkpt>
      <trkpt lat="43.52608" lon="5.292">
        <ele>79.926635742188</ele>
        <time>2020-09-07T11:59:29Z</time>
      </trkpt>
      <trkpt lat="43.52594" lon="5.29221">
        <ele>79.926635742188</ele>
        <time>2020-09-07T11:59:49Z</time>
      </trkpt>
      <trkpt lat="43.52567" lon="5.29216">
        <ele>78.965454101562</ele>
        <time>2020-09-07T12:00:23Z</time>
      </trkpt>
      <trkpt lat="43.52553" lon="5.29194">
        <ele>78.484741210938</ele>
        <time>2020-09-07T12:07:22Z</time>
      </trkpt>
      <trkpt lat="43.52539" lon="5.29172">
        <ele>78.965454101562</ele>
        <time>2020-09-07T12:07:41Z</time>
      </trkpt>
      <trkpt lat="43.52524" lon="5.29152">
        <ele>78.484741210938</ele>
        <time>2020-09-07T12:08:08Z</time>
      </trkpt>
      <trkpt lat="43.52502" lon="5.29169">
        <ele>78.004028320312</ele>
        <time>2020-09-07T12:08:29Z</time>
      </trkpt>
      <trkpt lat="43.52481" lon="5.2919">
        <ele>77.5234375</ele>
        <time>2020-09-07T12:08:53Z</time>
      </trkpt>
      <trkpt lat="43.52455" lon="5.29218">
        <ele>78.004028320312</ele>
        <time>2020-09-07T12:09:21Z</time>
      </trkpt>
      <trkpt lat="43.52424" lon="5.29238">
        <ele>78.004028320312</ele>
        <time>2020-09-07T12:09:53Z</time>
      </trkpt>
      <trkpt lat="43.524" lon="5.29223">
        <ele>78.965454101562</ele>
        <time>2020-09-07T12:10:17Z</time>
      </trkpt>
      <trkpt lat="43.52361" lon="5.29201">
        <ele>81.368774414062</ele>
        <time>2020-09-07T12:10:56Z</time>
      </trkpt>
      <trkpt lat="43.52341" lon="5.2918">
        <ele>81.849365234375</ele>
        <time>2020-09-07T12:11:17Z</time>
      </trkpt>
      <trkpt lat="43.52325" lon="5.29155">
        <ele>81.849365234375</ele>
        <time>2020-09-07T12:11:38Z</time>
      </trkpt>
      <trkpt lat="43.52312" lon="5.2913">
        <ele>81.368774414062</ele>
        <time>2020-09-07T12:12:01Z</time>
      </trkpt>
      <trkpt lat="43.52317" lon="5.29147">
        <ele>79.926635742188</ele>
        <time>2020-09-07T12:13:27Z</time>
      </trkpt>
      <trkpt lat="43.52298" lon="5.29119">
        <ele>79.926635742188</ele>
        <time>2020-09-07T12:13:44Z</time>
      </trkpt>
      <trkpt lat="43.52281" lon="5.29096">
        <ele>80.88818359375</ele>
        <time>2020-09-07T12:13:59Z</time>
      </trkpt>
      <trkpt lat="43.5226" lon="5.29078">
        <ele>82.330078125</ele>
        <time>2020-09-07T12:14:27Z</time>
      </trkpt>
      <trkpt lat="43.52236" lon="5.2905">
        <ele>84.7333984375</ele>
        <time>2020-09-07T12:15:04Z</time>
      </trkpt>
      <trkpt lat="43.52225" lon="5.29028">
        <ele>85.213989257812</ele>
        <time>2020-09-07T12:15:38Z</time>
      </trkpt>
      <trkpt lat="43.52209" lon="5.29004">
        <ele>85.213989257812</ele>
        <time>2020-09-07T12:16:00Z</time>
      </trkpt>
      <trkpt lat="43.5218" lon="5.2898">
        <ele>86.656005859375</ele>
        <time>2020-09-07T12:16:46Z</time>
      </trkpt>
      <trkpt lat="43.52162" lon="5.28981">
        <ele>88.098022460938</ele>
        <time>2020-09-07T12:17:24Z</time>
      </trkpt>
      <trkpt lat="43.52139" lon="5.29011">
        <ele>89.059326171875</ele>
        <time>2020-09-07T12:17:57Z</time>
      </trkpt>
      <trkpt lat="43.52115" lon="5.29022">
        <ele>91.462524414062</ele>
        <time>2020-09-07T12:18:23Z</time>
      </trkpt>
      <trkpt lat="43.52084" lon="5.29039">
        <ele>96.749877929688</ele>
        <time>2020-09-07T12:19:04Z</time>
      </trkpt>
      <trkpt lat="43.52058" lon="5.29055">
        <ele>99.153076171875</ele>
        <time>2020-09-07T12:19:36Z</time>
      </trkpt>
      <trkpt lat="43.5203" lon="5.2907">
        <ele>103.95971679688</ele>
        <time>2020-09-07T12:20:12Z</time>
      </trkpt>
      <trkpt lat="43.52007" lon="5.29072">
        <ele>107.32434082031</ele>
        <time>2020-09-07T12:20:34Z</time>
      </trkpt>
      <trkpt lat="43.51978" lon="5.29097">
        <ele>109.72766113281</ele>
        <time>2020-09-07T12:21:04Z</time>
      </trkpt>
      <trkpt lat="43.51964" lon="5.29119">
        <ele>112.13098144531</ele>
        <time>2020-09-07T12:21:22Z</time>
      </trkpt>
      <trkpt lat="43.51942" lon="5.2913">
        <ele>115.49560546875</ele>
        <time>2020-09-07T12:21:41Z</time>
      </trkpt>
      <trkpt lat="43.51915" lon="5.29153">
        <ele>119.3408203125</ele>
        <time>2020-09-07T12:22:14Z</time>
      </trkpt>
      <trkpt lat="43.51911" lon="5.29182">
        <ele>122.70544433594</ele>
        <time>2020-09-07T12:22:31Z</time>
      </trkpt>
      <trkpt lat="43.51905" lon="5.29211">
        <ele>127.51196289062</ele>
        <time>2020-09-07T12:22:51Z</time>
      </trkpt>
      <trkpt lat="43.51884" lon="5.29226">
        <ele>130.87670898438</ele>
        <time>2020-09-07T12:23:09Z</time>
      </trkpt>
      <trkpt lat="43.51868" lon="5.29242">
        <ele>134.2412109375</ele>
        <time>2020-09-07T12:23:26Z</time>
      </trkpt>
      <trkpt lat="43.51848" lon="5.29245">
        <ele>137.12524414062</ele>
        <time>2020-09-07T12:23:43Z</time>
      </trkpt>
      <trkpt lat="43.51826" lon="5.29244">
        <ele>140.97045898438</ele>
        <time>2020-09-07T12:24:02Z</time>
      </trkpt>
      <trkpt lat="43.51801" lon="5.29253">
        <ele>144.33520507812</ele>
        <time>2020-09-07T12:24:50Z</time>
      </trkpt>
      <trkpt lat="43.51776" lon="5.29266">
        <ele>147.69970703125</ele>
        <time>2020-09-07T12:25:11Z</time>
      </trkpt>
      <trkpt lat="43.51749" lon="5.29281">
        <ele>150.58361816406</ele>
        <time>2020-09-07T12:25:34Z</time>
      </trkpt>
      <trkpt lat="43.51731" lon="5.29293">
        <ele>152.50634765625</ele>
        <time>2020-09-07T12:25:50Z</time>
      </trkpt>
      <trkpt lat="43.51733" lon="5.29286">
        <ele>153.46765136719</ele>
        <time>2020-09-07T12:33:16Z</time>
      </trkpt>
      <trkpt lat="43.51704" lon="5.29301">
        <ele>154.90954589844</ele>
        <time>2020-09-07T12:38:28Z</time>
      </trkpt>
      <trkpt lat="43.51685" lon="5.29308">
        <ele>155.87097167969</ele>
        <time>2020-09-07T12:39:00Z</time>
      </trkpt>
      <trkpt lat="43.5167" lon="5.29324">
        <ele>155.87097167969</ele>
        <time>2020-09-07T12:39:28Z</time>
      </trkpt>
      <trkpt lat="43.51649" lon="5.2935">
        <ele>155.87097167969</ele>
        <time>2020-09-07T12:41:19Z</time>
      </trkpt>
      <trkpt lat="43.51624" lon="5.29358">
        <ele>154.42895507812</ele>
        <time>2020-09-07T12:41:59Z</time>
      </trkpt>
      <trkpt lat="43.51589" lon="5.29373">
        <ele>151.544921875</ele>
        <time>2020-09-07T12:43:24Z</time>
      </trkpt>
      <trkpt lat="43.51566" lon="5.29391">
        <ele>150.58361816406</ele>
        <time>2020-09-07T12:44:05Z</time>
      </trkpt>
      <trkpt lat="43.51545" lon="5.29419">
        <ele>150.10302734375</ele>
        <time>2020-09-07T12:44:29Z</time>
      </trkpt>
      <trkpt lat="43.51522" lon="5.29449">
        <ele>149.1416015625</ele>
        <time>2020-09-07T12:44:54Z</time>
      </trkpt>
      <trkpt lat="43.51493" lon="5.29478">
        <ele>148.66101074219</ele>
        <time>2020-09-07T12:45:21Z</time>
      </trkpt>
      <trkpt lat="43.51471" lon="5.29502">
        <ele>148.66101074219</ele>
        <time>2020-09-07T12:45:45Z</time>
      </trkpt>
      <trkpt lat="43.51446" lon="5.29529">
        <ele>150.10302734375</ele>
        <time>2020-09-07T12:46:11Z</time>
      </trkpt>
      <trkpt lat="43.5143" lon="5.29551">
        <ele>150.58361816406</ele>
        <time>2020-09-07T12:46:32Z</time>
      </trkpt>
      <trkpt lat="43.51411" lon="5.29581">
        <ele>152.02575683594</ele>
        <time>2020-09-07T12:46:58Z</time>
      </trkpt>
      <trkpt lat="43.51389" lon="5.29607">
        <ele>152.98693847656</ele>
        <time>2020-09-07T12:47:24Z</time>
      </trkpt>
      <trkpt lat="43.5137" lon="5.29622">
        <ele>153.94836425781</ele>
        <time>2020-09-07T12:47:43Z</time>
      </trkpt>
      <trkpt lat="43.51353" lon="5.29638">
        <ele>155.39025878906</ele>
        <time>2020-09-07T12:48:02Z</time>
      </trkpt>
      <trkpt lat="43.51327" lon="5.29665">
        <ele>156.3515625</ele>
        <time>2020-09-07T12:48:32Z</time>
      </trkpt>
      <trkpt lat="43.51311" lon="5.29683">
        <ele>156.3515625</ele>
        <time>2020-09-07T12:48:52Z</time>
      </trkpt>
      <trkpt lat="43.51291" lon="5.29699">
        <ele>156.3515625</ele>
        <time>2020-09-07T12:49:13Z</time>
      </trkpt>
      <trkpt lat="43.51272" lon="5.29713">
        <ele>155.87097167969</ele>
        <time>2020-09-07T12:49:34Z</time>
      </trkpt>
      <trkpt lat="43.51238" lon="5.29733">
        <ele>155.39025878906</ele>
        <time>2020-09-07T12:50:11Z</time>
      </trkpt>
      <trkpt lat="43.51226" lon="5.29768">
        <ele>154.90954589844</ele>
        <time>2020-09-07T12:50:40Z</time>
      </trkpt>
      <trkpt lat="43.5121" lon="5.2981">
        <ele>157.31286621094</ele>
        <time>2020-09-07T12:51:17Z</time>
      </trkpt>
      <trkpt lat="43.51194" lon="5.29848">
        <ele>159.71618652344</ele>
        <time>2020-09-07T12:51:47Z</time>
      </trkpt>
      <trkpt lat="43.51174" lon="5.29883">
        <ele>165.00341796875</ele>
        <time>2020-09-07T12:52:22Z</time>
      </trkpt>
      <trkpt lat="43.5115" lon="5.299">
        <ele>167.88732910156</ele>
        <time>2020-09-07T12:52:49Z</time>
      </trkpt>
      <trkpt lat="43.51128" lon="5.29913">
        <ele>169.32946777344</ele>
        <time>2020-09-07T12:53:14Z</time>
      </trkpt>
      <trkpt lat="43.51111" lon="5.29924">
        <ele>170.29064941406</ele>
        <time>2020-09-07T12:53:34Z</time>
      </trkpt>
      <trkpt lat="43.51092" lon="5.29934">
        <ele>171.25207519531</ele>
        <time>2020-09-07T12:53:56Z</time>
      </trkpt>
      <trkpt lat="43.51065" lon="5.29947">
        <ele>174.61657714844</ele>
        <time>2020-09-07T12:54:26Z</time>
      </trkpt>
      <trkpt lat="43.51033" lon="5.29975">
        <ele>176.05859375</ele>
        <time>2020-09-07T12:55:02Z</time>
      </trkpt>
      <trkpt lat="43.51012" lon="5.30018">
        <ele>177.98120117188</ele>
        <time>2020-09-07T12:55:38Z</time>
      </trkpt>
      <trkpt lat="43.50996" lon="5.30054">
        <ele>182.78784179688</ele>
        <time>2020-09-07T12:56:14Z</time>
      </trkpt>
      <trkpt lat="43.50985" lon="5.30083">
        <ele>185.19116210938</ele>
        <time>2020-09-07T12:56:37Z</time>
      </trkpt>
      <trkpt lat="43.50959" lon="5.30109">
        <ele>186.15246582031</ele>
        <time>2020-09-07T12:57:13Z</time>
      </trkpt>
      <trkpt lat="43.50938" lon="5.30104">
        <ele>186.15246582031</ele>
        <time>2020-09-07T12:57:48Z</time>
      </trkpt>
      <trkpt lat="43.50942" lon="5.30112">
        <ele>185.67175292969</ele>
        <time>2020-09-07T13:05:52Z</time>
      </trkpt>
      <trkpt lat="43.50951" lon="5.30121">
        <ele>185.19116210938</ele>
        <time>2020-09-07T13:13:16Z</time>
      </trkpt>
      <trkpt lat="43.50931" lon="5.3016">
        <ele>183.26843261719</ele>
        <time>2020-09-07T13:13:57Z</time>
      </trkpt>
      <trkpt lat="43.50909" lon="5.302">
        <ele>179.90380859375</ele>
        <time>2020-09-07T13:14:34Z</time>
      </trkpt>
      <trkpt lat="43.50896" lon="5.30225">
        <ele>176.53930664062</ele>
        <time>2020-09-07T13:14:57Z</time>
      </trkpt>
      <trkpt lat="43.5088" lon="5.30261">
        <ele>172.69396972656</ele>
        <time>2020-09-07T13:15:32Z</time>
      </trkpt>
      <trkpt lat="43.50864" lon="5.30298">
        <ele>168.84875488281</ele>
        <time>2020-09-07T13:16:03Z</time>
      </trkpt>
      <trkpt lat="43.5086" lon="5.30327">
        <ele>166.4453125</ele>
        <time>2020-09-07T13:16:26Z</time>
      </trkpt>
      <trkpt lat="43.50863" lon="5.30388">
        <ele>161.158203125</ele>
        <time>2020-09-07T13:17:12Z</time>
      </trkpt>
      <trkpt lat="43.50858" lon="5.30427">
        <ele>157.79357910156</ele>
        <time>2020-09-07T13:17:46Z</time>
      </trkpt>
      <trkpt lat="43.5085" lon="5.30456">
        <ele>154.90954589844</ele>
        <time>2020-09-07T13:18:15Z</time>
      </trkpt>
      <trkpt lat="43.50839" lon="5.3049">
        <ele>152.50634765625</ele>
        <time>2020-09-07T13:18:39Z</time>
      </trkpt>
      <trkpt lat="43.50838" lon="5.30516">
        <ele>152.02575683594</ele>
        <time>2020-09-07T13:18:58Z</time>
      </trkpt>
      <trkpt lat="43.5084" lon="5.30549">
        <ele>149.62231445312</ele>
        <time>2020-09-07T13:19:59Z</time>
      </trkpt>
      <trkpt lat="43.50848" lon="5.30578">
        <ele>147.69970703125</ele>
        <time>2020-09-07T13:20:19Z</time>
      </trkpt>
      <trkpt lat="43.50857" lon="5.30609">
        <ele>146.73840332031</ele>
        <time>2020-09-07T13:20:40Z</time>
      </trkpt>
      <trkpt lat="43.50862" lon="5.30643">
        <ele>145.29638671875</ele>
        <time>2020-09-07T13:21:04Z</time>
      </trkpt>
      <trkpt lat="43.50855" lon="5.30687">
        <ele>142.89306640625</ele>
        <time>2020-09-07T13:21:35Z</time>
      </trkpt>
      <trkpt lat="43.50849" lon="5.30715">
        <ele>141.93176269531</ele>
        <time>2020-09-07T13:21:54Z</time>
      </trkpt>
      <trkpt lat="43.50841" lon="5.30757">
        <ele>142.89306640625</ele>
        <time>2020-09-07T13:22:59Z</time>
      </trkpt>
      <trkpt lat="43.50834" lon="5.30785">
        <ele>143.85437011719</ele>
        <time>2020-09-07T13:23:18Z</time>
      </trkpt>
      <trkpt lat="43.5082" lon="5.30819">
        <ele>147.21899414062</ele>
        <time>2020-09-07T13:24:01Z</time>
      </trkpt>
      <trkpt lat="43.50819" lon="5.30853">
        <ele>151.06420898438</ele>
        <time>2020-09-07T13:24:28Z</time>
      </trkpt>
      <trkpt lat="43.50814" lon="5.30902">
        <ele>154.42895507812</ele>
        <time>2020-09-07T13:25:10Z</time>
      </trkpt>
      <trkpt lat="43.50804" lon="5.30944">
        <ele>157.31286621094</ele>
        <time>2020-09-07T13:25:44Z</time>
      </trkpt>
      <trkpt lat="43.50794" lon="5.30975">
        <ele>158.75476074219</ele>
        <time>2020-09-07T13:26:12Z</time>
      </trkpt>
      <trkpt lat="43.50782" lon="5.31022">
        <ele>160.19689941406</ele>
        <time>2020-09-07T13:26:46Z</time>
      </trkpt>
      <trkpt lat="43.50774" lon="5.31052">
        <ele>161.158203125</ele>
        <time>2020-09-07T13:27:09Z</time>
      </trkpt>
      <trkpt lat="43.50768" lon="5.31076">
        <ele>162.11950683594</ele>
        <time>2020-09-07T13:27:28Z</time>
      </trkpt>
      <trkpt lat="43.50757" lon="5.31109">
        <ele>162.60009765625</ele>
        <time>2020-09-07T13:27:51Z</time>
      </trkpt>
      <trkpt lat="43.50748" lon="5.31139">
        <ele>161.63891601562</ele>
        <time>2020-09-07T13:28:13Z</time>
      </trkpt>
      <trkpt lat="43.50737" lon="5.31166">
        <ele>160.67749023438</ele>
        <time>2020-09-07T13:28:34Z</time>
      </trkpt>
      <trkpt lat="43.50733" lon="5.31201">
        <ele>161.158203125</ele>
        <time>2020-09-07T13:28:58Z</time>
      </trkpt>
      <trkpt lat="43.50735" lon="5.31234">
        <ele>161.158203125</ele>
        <time>2020-09-07T13:29:20Z</time>
      </trkpt>
      <trkpt lat="43.50724" lon="5.31267">
        <ele>162.11950683594</ele>
        <time>2020-09-07T13:29:44Z</time>
      </trkpt>
      <trkpt lat="43.50719" lon="5.31318">
        <ele>165.00341796875</ele>
        <time>2020-09-07T13:30:20Z</time>
      </trkpt>
      <trkpt lat="43.50712" lon="5.31352">
        <ele>165.00341796875</ele>
        <time>2020-09-07T13:30:44Z</time>
      </trkpt>
      <trkpt lat="43.50689" lon="5.31373">
        <ele>164.52270507812</ele>
        <time>2020-09-07T13:31:09Z</time>
      </trkpt>
      <trkpt lat="43.50664" lon="5.31395">
        <ele>163.5615234375</ele>
        <time>2020-09-07T13:31:48Z</time>
      </trkpt>
      <trkpt lat="43.50638" lon="5.31424">
        <ele>163.08081054688</ele>
        <time>2020-09-07T13:32:15Z</time>
      </trkpt>
      <trkpt lat="43.50629" lon="5.31457">
        <ele>163.5615234375</ele>
        <time>2020-09-07T13:32:36Z</time>
      </trkpt>
      <trkpt lat="43.50628" lon="5.31494">
        <ele>163.5615234375</ele>
        <time>2020-09-07T13:32:59Z</time>
      </trkpt>
      <trkpt lat="43.50625" lon="5.31536">
        <ele>163.5615234375</ele>
        <time>2020-09-07T13:33:24Z</time>
      </trkpt>
      <trkpt lat="43.5064" lon="5.31554">
        <ele>162.60009765625</ele>
        <time>2020-09-07T13:33:49Z</time>
      </trkpt>
      <trkpt lat="43.5067" lon="5.31558">
        <ele>161.158203125</ele>
        <time>2020-09-07T13:34:43Z</time>
      </trkpt>
      <trkpt lat="43.5069" lon="5.31582">
        <ele>157.79357910156</ele>
        <time>2020-09-07T13:35:11Z</time>
      </trkpt>
      <trkpt lat="43.50708" lon="5.31589">
        <ele>154.90954589844</ele>
        <time>2020-09-07T13:35:32Z</time>
      </trkpt>
      <trkpt lat="43.50735" lon="5.31597">
        <ele>150.10302734375</ele>
        <time>2020-09-07T13:36:02Z</time>
      </trkpt>
      <trkpt lat="43.50759" lon="5.31604">
        <ele>147.69970703125</ele>
        <time>2020-09-07T13:36:30Z</time>
      </trkpt>
      <trkpt lat="43.50779" lon="5.31608">
        <ele>144.81579589844</ele>
        <time>2020-09-07T13:36:51Z</time>
      </trkpt>
      <trkpt lat="43.508" lon="5.31609">
        <ele>142.41247558594</ele>
        <time>2020-09-07T13:37:08Z</time>
      </trkpt>
      <trkpt lat="43.5082" lon="5.31612">
        <ele>140.97045898438</ele>
        <time>2020-09-07T13:37:25Z</time>
      </trkpt>
      <trkpt lat="43.5084" lon="5.31616">
        <ele>140.00915527344</ele>
        <time>2020-09-07T13:37:42Z</time>
      </trkpt>
      <trkpt lat="43.50864" lon="5.31642">
        <ele>136.16394042969</ele>
        <time>2020-09-07T13:38:09Z</time>
      </trkpt>
      <trkpt lat="43.50888" lon="5.31672">
        <ele>132.79931640625</ele>
        <time>2020-09-07T13:38:41Z</time>
      </trkpt>
      <trkpt lat="43.50906" lon="5.31707">
        <ele>129.91528320312</ele>
        <time>2020-09-07T13:39:09Z</time>
      </trkpt>
      <trkpt lat="43.50925" lon="5.31713">
        <ele>128.47338867188</ele>
        <time>2020-09-07T13:39:27Z</time>
      </trkpt>
      <trkpt lat="43.50947" lon="5.31725">
        <ele>126.55065917969</ele>
        <time>2020-09-07T13:39:57Z</time>
      </trkpt>
      <trkpt lat="43.50964" lon="5.31756">
        <ele>123.66674804688</ele>
        <time>2020-09-07T13:40:22Z</time>
      </trkpt>
      <trkpt lat="43.5098" lon="5.31775">
        <ele>121.744140625</ele>
        <time>2020-09-07T13:40:42Z</time>
      </trkpt>
      <trkpt lat="43.51013" lon="5.31815">
        <ele>117.89880371094</ele>
        <time>2020-09-07T13:41:21Z</time>
      </trkpt>
      <trkpt lat="43.51042" lon="5.31845">
        <ele>114.5341796875</ele>
        <time>2020-09-07T13:41:52Z</time>
      </trkpt>
      <trkpt lat="43.5107" lon="5.31877">
        <ele>112.13098144531</ele>
        <time>2020-09-07T13:42:26Z</time>
      </trkpt>
      <trkpt lat="43.51101" lon="5.31897">
        <ele>110.20825195312</ele>
        <time>2020-09-07T13:42:52Z</time>
      </trkpt>
      <trkpt lat="43.51123" lon="5.31906">
        <ele>107.80505371094</ele>
        <time>2020-09-07T13:43:12Z</time>
      </trkpt>
      <trkpt lat="43.51142" lon="5.31917">
        <ele>105.88244628906</ele>
        <time>2020-09-07T13:43:30Z</time>
      </trkpt>
      <trkpt lat="43.51162" lon="5.31931">
        <ele>103.95971679688</ele>
        <time>2020-09-07T13:43:52Z</time>
      </trkpt>
      <trkpt lat="43.5119" lon="5.31944">
        <ele>102.51770019531</ele>
        <time>2020-09-07T13:44:18Z</time>
      </trkpt>
      <trkpt lat="43.51229" lon="5.31957">
        <ele>99.6337890625</ele>
        <time>2020-09-07T13:44:50Z</time>
      </trkpt>
      <trkpt lat="43.51265" lon="5.31962">
        <ele>97.711181640625</ele>
        <time>2020-09-07T13:45:22Z</time>
      </trkpt>
      <trkpt lat="43.51287" lon="5.31967">
        <ele>96.749877929688</ele>
        <time>2020-09-07T13:45:40Z</time>
      </trkpt>
      <trkpt lat="43.51322" lon="5.31972">
        <ele>94.346557617188</ele>
        <time>2020-09-07T13:46:09Z</time>
      </trkpt>
      <trkpt lat="43.51344" lon="5.31995">
        <ele>92.904541015625</ele>
        <time>2020-09-07T13:46:33Z</time>
      </trkpt>
      <trkpt lat="43.51367" lon="5.31986">
        <ele>90.020629882812</ele>
        <time>2020-09-07T13:46:57Z</time>
      </trkpt>
      <trkpt lat="43.51394" lon="5.31983">
        <ele>89.059326171875</ele>
        <time>2020-09-07T13:47:36Z</time>
      </trkpt>
      <trkpt lat="43.51417" lon="5.31926">
        <ele>89.059326171875</ele>
        <time>2020-09-07T13:48:17Z</time>
      </trkpt>
      <trkpt lat="43.5143" lon="5.31908">
        <ele>87.6171875</ele>
        <time>2020-09-07T13:48:42Z</time>
      </trkpt>
      <trkpt lat="43.51443" lon="5.31873">
        <ele>87.6171875</ele>
        <time>2020-09-07T13:49:06Z</time>
      </trkpt>
      <trkpt lat="43.51456" lon="5.31851">
        <ele>87.136596679688</ele>
        <time>2020-09-07T13:49:23Z</time>
      </trkpt>
      <trkpt lat="43.51472" lon="5.31833">
        <ele>87.136596679688</ele>
        <time>2020-09-07T13:49:44Z</time>
      </trkpt>
      <trkpt lat="43.51488" lon="5.31852">
        <ele>85.694580078125</ele>
        <time>2020-09-07T13:50:22Z</time>
      </trkpt>
      <trkpt lat="43.51501" lon="5.31878">
        <ele>84.7333984375</ele>
        <time>2020-09-07T13:50:42Z</time>
      </trkpt>
      <trkpt lat="43.515" lon="5.319">
        <ele>84.252685546875</ele>
        <time>2020-09-07T13:51:05Z</time>
      </trkpt>
      <trkpt lat="43.51492" lon="5.31926">
        <ele>85.213989257812</ele>
        <time>2020-09-07T13:51:33Z</time>
      </trkpt>
      <trkpt lat="43.5151" lon="5.31927">
        <ele>85.694580078125</ele>
        <time>2020-09-07T13:52:05Z</time>
      </trkpt>
      <trkpt lat="43.51499" lon="5.31932">
        <ele>82.810791015625</ele>
        <time>2020-09-07T14:08:19Z</time>
      </trkpt>
      <trkpt lat="43.51501" lon="5.31893">
        <ele>82.330078125</ele>
        <time>2020-09-07T14:09:08Z</time>
      </trkpt>
      <trkpt lat="43.51501" lon="5.31867">
        <ele>82.330078125</ele>
        <time>2020-09-07T14:09:25Z</time>
      </trkpt>
      <trkpt lat="43.51488" lon="5.31832">
        <ele>83.77197265625</ele>
        <time>2020-09-07T14:09:50Z</time>
      </trkpt>
      <trkpt lat="43.51498" lon="5.31798">
        <ele>85.213989257812</ele>
        <time>2020-09-07T14:10:23Z</time>
      </trkpt>
      <trkpt lat="43.51514" lon="5.3178">
        <ele>85.213989257812</ele>
        <time>2020-09-07T14:10:40Z</time>
      </trkpt>
      <trkpt lat="43.51532" lon="5.3176">
        <ele>85.213989257812</ele>
        <time>2020-09-07T14:11:00Z</time>
      </trkpt>
      <trkpt lat="43.51548" lon="5.31735">
        <ele>85.213989257812</ele>
        <time>2020-09-07T14:11:19Z</time>
      </trkpt>
      <trkpt lat="43.51563" lon="5.31715">
        <ele>85.694580078125</ele>
        <time>2020-09-07T14:11:39Z</time>
      </trkpt>
      <trkpt lat="43.51578" lon="5.31691">
        <ele>85.213989257812</ele>
        <time>2020-09-07T14:12:01Z</time>
      </trkpt>
      <trkpt lat="43.51592" lon="5.31665">
        <ele>85.213989257812</ele>
        <time>2020-09-07T14:12:21Z</time>
      </trkpt>
      <trkpt lat="43.51607" lon="5.31644">
        <ele>85.213989257812</ele>
        <time>2020-09-07T14:12:42Z</time>
      </trkpt>
      <trkpt lat="43.51629" lon="5.31605">
        <ele>85.694580078125</ele>
        <time>2020-09-07T14:13:13Z</time>
      </trkpt>
      <trkpt lat="43.51649" lon="5.31569">
        <ele>85.694580078125</ele>
        <time>2020-09-07T14:13:46Z</time>
      </trkpt>
      <trkpt lat="43.51656" lon="5.31543">
        <ele>85.213989257812</ele>
        <time>2020-09-07T14:14:03Z</time>
      </trkpt>
      <trkpt lat="43.51659" lon="5.31508">
        <ele>85.213989257812</ele>
        <time>2020-09-07T14:14:26Z</time>
      </trkpt>
      <trkpt lat="43.51639" lon="5.31462">
        <ele>84.252685546875</ele>
        <time>2020-09-07T14:15:11Z</time>
      </trkpt>
      <trkpt lat="43.51637" lon="5.31438">
        <ele>84.252685546875</ele>
        <time>2020-09-07T14:15:28Z</time>
      </trkpt>
    </trkseg>
  </trk>
</gpx>